createdAt,value
2022-10-18T00:00:27.412Z,12.00
2022-10-18T00:02:29.210Z,12.02
2022-10-18T00:04:31.520Z,12.01
2022-10-18T00:06:33.330Z,11.97
2022-10-18T00:08:36.233Z,11.97
2022-10-18T00:10:38.341Z,11.99
2022-10-18T00:12:40.469Z,11.99
2022-10-18T00:14:42.218Z,12.00
2022-10-18T00:16:44.075Z,12.00
2022-10-18T00:18:46.101Z,11.89
2022-10-18T00:20:59.268Z,11.93
2022-10-18T00:23:01.458Z,11.88
2022-10-18T00:25:03.380Z,11.79
2022-10-18T00:27:05.071Z,11.95
2022-10-18T00:29:07.374Z,12.01
2022-10-18T00:31:12.717Z,12.02
2022-10-18T00:33:14.424Z,12.00
2022-10-18T00:35:16.548Z,11.91
2022-10-18T00:37:19.083Z,11.96
2022-10-18T00:39:21.943Z,11.97
2022-10-18T00:41:34.196Z,11.95
2022-10-18T00:43:57.616Z,12.00
2022-10-18T00:45:59.315Z,12.00
2022-10-18T00:48:04.606Z,12.05
2022-10-18T00:50:08.288Z,11.91
2022-10-18T00:52:11.973Z,11.95
2022-10-18T00:54:16.642Z,11.91
2022-10-18T00:56:18.598Z,11.96
2022-10-18T00:58:20.601Z,11.98
2022-10-18T01:00:22.302Z,11.98
2022-10-18T01:02:25.146Z,11.99
2022-10-18T01:04:26.946Z,12.02
2022-10-18T01:06:29.430Z,11.96
2022-10-18T01:08:38.279Z,12.04
2022-10-18T01:10:59.872Z,12.05
2022-10-18T01:13:29.344Z,12.09
2022-10-18T01:15:34.121Z,12.15
2022-10-18T01:18:00.968Z,12.23
2022-10-18T01:20:27.437Z,12.18
2022-10-18T01:22:37.920Z,12.10
2022-10-18T01:24:54.536Z,12.13
2022-10-18T01:27:02.091Z,12.14
2022-10-18T01:29:25.529Z,12.15
2022-10-18T01:31:49.023Z,12.14
2022-10-18T01:34:05.320Z,12.10
2022-10-18T01:36:19.990Z,12.00
2022-10-18T01:38:24.914Z,11.99
2022-10-18T01:40:29.747Z,11.88
2022-10-18T01:42:32.324Z,11.90
2022-10-18T01:44:35.562Z,11.85
2022-10-18T01:46:39.665Z,11.85
2022-10-18T01:48:41.627Z,11.88
2022-10-18T01:50:43.606Z,11.90
2022-10-18T01:52:50.332Z,11.89
2022-10-18T01:54:54.212Z,11.87
2022-10-18T01:57:05.666Z,11.84
2022-10-18T01:59:38.687Z,11.84
2022-10-18T02:02:08.333Z,11.80
2022-10-18T02:04:41.391Z,11.79
2022-10-18T02:06:45.343Z,11.74
2022-10-18T02:08:55.322Z,11.80
2022-10-18T02:11:02.602Z,11.75
2022-10-18T02:13:05.000Z,11.77
2022-10-18T02:15:09.490Z,11.71
2022-10-18T02:17:13.159Z,11.74
2022-10-18T02:19:19.990Z,11.74
2022-10-18T02:21:22.748Z,11.71
2022-10-18T02:23:25.929Z,11.67
2022-10-18T02:25:31.130Z,11.64
2022-10-18T02:27:32.987Z,11.68
2022-10-18T02:29:35.531Z,11.65
2022-10-18T02:31:45.154Z,11.58
2022-10-18T02:33:53.280Z,11.59
2022-10-18T02:36:05.495Z,11.58
2022-10-18T02:38:09.822Z,11.54
2022-10-18T02:40:11.742Z,11.52
2022-10-18T02:42:15.085Z,11.52
2022-10-18T02:44:16.831Z,11.45
2022-10-18T02:46:19.646Z,11.50
2022-10-18T02:48:21.428Z,11.38
2022-10-18T02:50:23.113Z,11.44
2022-10-18T02:52:25.037Z,11.42
2022-10-18T02:54:26.983Z,11.43
2022-10-18T02:56:28.815Z,11.40
2022-10-18T02:58:30.669Z,11.38
2022-10-18T03:00:32.413Z,11.35
2022-10-18T03:02:34.263Z,11.41
2022-10-18T03:04:35.971Z,11.35
2022-10-18T03:06:37.987Z,11.35
2022-10-18T03:08:39.890Z,11.28
2022-10-18T03:10:46.363Z,11.33
2022-10-18T03:12:48.173Z,11.27
2022-10-18T03:14:49.872Z,11.28
2022-10-18T03:16:51.704Z,11.29
2022-10-18T03:18:53.496Z,11.19
2022-10-18T03:20:55.197Z,11.26
2022-10-18T03:22:57.050Z,11.24
2022-10-18T03:24:58.793Z,11.26
2022-10-18T03:27:00.519Z,11.28
2022-10-18T03:29:02.282Z,11.22
2022-10-18T03:31:04.922Z,11.22
2022-10-18T03:33:06.984Z,11.28
2022-10-18T03:35:09.430Z,11.25
2022-10-18T03:37:11.310Z,11.25
2022-10-18T03:39:13.054Z,11.18
2022-10-18T03:41:14.807Z,11.15
2022-10-18T03:43:16.716Z,11.14
2022-10-18T03:45:18.407Z,11.09
2022-10-18T03:47:20.149Z,11.05
2022-10-18T03:49:22.043Z,11.05
2022-10-18T03:51:23.806Z,11.12
2022-10-18T03:53:25.614Z,11.10
2022-10-18T03:55:27.470Z,11.17
2022-10-18T03:57:29.226Z,11.17
2022-10-18T03:59:30.985Z,11.22
2022-10-18T04:01:32.756Z,11.25
2022-10-18T04:03:34.522Z,11.26
2022-10-18T04:05:36.284Z,11.25
2022-10-18T04:07:38.086Z,11.23
2022-10-18T04:09:39.800Z,11.25
2022-10-18T04:11:41.586Z,11.23
2022-10-18T04:13:43.488Z,11.23
2022-10-18T04:15:45.194Z,11.22
2022-10-18T04:17:47.289Z,11.11
2022-10-18T04:19:49.196Z,11.10
2022-10-18T04:21:50.882Z,11.15
2022-10-18T04:23:52.738Z,11.16
2022-10-18T04:25:54.898Z,11.18
2022-10-18T04:27:56.646Z,11.21
2022-10-18T04:29:58.395Z,11.21
2022-10-18T04:32:00.597Z,11.17
2022-10-18T04:34:02.415Z,11.14
2022-10-18T04:36:05.356Z,11.09
2022-10-18T04:38:07.283Z,10.94
2022-10-18T04:40:09.581Z,10.80
2022-10-18T04:42:11.330Z,10.81
2022-10-18T04:44:13.388Z,10.87
2022-10-18T04:46:15.076Z,10.79
2022-10-18T04:48:18.000Z,10.81
2022-10-18T04:50:19.975Z,10.88
2022-10-18T04:52:21.661Z,10.96
2022-10-18T04:54:26.489Z,11.04
2022-10-18T04:56:30.481Z,11.14
2022-10-18T04:58:32.770Z,11.17
2022-10-18T05:00:39.774Z,11.19
2022-10-18T05:02:41.946Z,11.25
2022-10-18T05:04:43.623Z,11.32
2022-10-18T05:06:45.640Z,11.28
2022-10-18T05:08:47.649Z,11.37
2022-10-18T05:10:49.359Z,11.38
2022-10-18T05:12:51.159Z,11.47
2022-10-18T05:14:53.309Z,11.48
2022-10-18T05:16:55.027Z,11.50
2022-10-18T05:18:56.830Z,11.52
2022-10-18T05:20:58.832Z,11.51
2022-10-18T05:23:00.543Z,11.48
2022-10-18T05:25:02.323Z,11.50
2022-10-18T05:27:04.262Z,11.49
2022-10-18T05:29:06.112Z,11.51
2022-10-18T05:31:10.036Z,11.46
2022-10-18T05:33:11.875Z,11.37
2022-10-18T05:35:13.618Z,11.32
2022-10-18T05:37:15.379Z,11.33
2022-10-18T05:39:17.235Z,11.28
2022-10-18T05:41:19.053Z,11.31
2022-10-18T05:43:21.362Z,11.18
2022-10-18T05:45:23.175Z,11.09
2022-10-18T05:47:25.001Z,11.05
2022-10-18T05:49:27.051Z,10.96
2022-10-18T05:51:28.951Z,10.95
2022-10-18T05:53:38.375Z,10.97
2022-10-18T05:55:40.316Z,11.11
2022-10-18T05:57:42.267Z,11.16
2022-10-18T05:59:44.540Z,11.18
2022-10-18T06:01:46.446Z,11.30
2022-10-18T06:03:48.859Z,11.32
2022-10-18T06:05:50.577Z,11.35
2022-10-18T06:07:52.525Z,11.41
2022-10-18T06:09:54.286Z,11.53
2022-10-18T06:11:56.277Z,11.64
2022-10-18T06:13:58.315Z,11.73
2022-10-18T06:16:00.127Z,11.79
2022-10-18T06:18:01.886Z,11.84
2022-10-18T06:20:04.267Z,11.45
2022-10-18T06:22:06.151Z,11.82
2022-10-18T06:24:07.827Z,11.86
2022-10-18T06:26:11.818Z,12.08
2022-10-18T06:28:13.613Z,12.28
2022-10-18T06:30:15.455Z,12.40
2022-10-18T06:32:17.479Z,12.52
2022-10-18T06:34:19.609Z,12.55
2022-10-18T06:36:21.866Z,12.80
2022-10-18T06:38:24.039Z,12.93
2022-10-18T06:40:26.031Z,13.01
2022-10-18T06:42:27.730Z,13.20
2022-10-18T06:44:29.449Z,13.35
2022-10-18T06:46:31.903Z,13.52
2022-10-18T06:48:38.739Z,13.69
2022-10-18T06:50:40.483Z,13.72
2022-10-18T06:52:42.447Z,13.91
2022-10-18T06:54:45.419Z,14.13
2022-10-18T06:56:47.328Z,14.35
2022-10-18T06:58:49.308Z,14.39
2022-10-18T07:00:51.029Z,14.51
2022-10-18T07:02:52.777Z,14.62
2022-10-18T07:04:55.325Z,14.77
2022-10-18T07:06:57.078Z,14.83
2022-10-18T07:08:58.882Z,14.90
2022-10-18T07:11:01.332Z,14.94
2022-10-18T07:13:27.370Z,15.00
2022-10-18T07:15:24.785Z,15.01
2022-10-18T07:17:27.578Z,15.01
2022-10-18T07:19:29.279Z,15.05
2022-10-18T07:21:31.259Z,14.89
2022-10-18T07:23:34.749Z,14.95
2022-10-18T07:25:36.441Z,14.96
2022-10-18T07:27:40.499Z,15.00
2022-10-18T07:29:42.753Z,15.03
2022-10-18T07:31:44.444Z,14.88
2022-10-18T07:33:46.177Z,14.69
2022-10-18T07:35:48.363Z,14.57
2022-10-18T07:37:50.095Z,14.64
2022-10-18T07:39:51.780Z,14.74
2022-10-18T07:41:53.655Z,14.58
2022-10-18T07:43:55.407Z,14.58
2022-10-18T07:46:00.301Z,14.49
2022-10-18T07:48:02.679Z,14.49
2022-10-18T07:50:04.558Z,14.64
2022-10-18T07:52:06.322Z,14.69
2022-10-18T07:54:09.177Z,14.73
2022-10-18T07:56:16.705Z,14.78
2022-10-18T07:58:18.534Z,14.84
2022-10-18T08:00:20.793Z,14.70
2022-10-18T08:02:25.257Z,14.76
2022-10-18T08:04:26.948Z,14.82
2022-10-18T08:06:28.883Z,14.71
2022-10-18T08:08:30.669Z,14.80
2022-10-18T08:10:34.310Z,14.70
2022-10-18T08:12:36.090Z,14.65
2022-10-18T08:14:37.847Z,14.62
2022-10-18T08:16:39.561Z,14.59
2022-10-18T08:18:41.477Z,14.57
2022-10-18T08:20:46.549Z,14.56
2022-10-18T08:22:51.275Z,14.76
2022-10-18T08:24:53.141Z,14.81
2022-10-18T08:26:55.070Z,14.82
2022-10-18T08:29:10.678Z,14.87
2022-10-18T08:31:19.516Z,14.93
2022-10-18T08:33:21.453Z,14.98
2022-10-18T08:35:23.193Z,14.99
2022-10-18T08:37:25.131Z,15.07
2022-10-18T08:39:30.587Z,15.08
2022-10-18T08:41:44.058Z,15.17
2022-10-18T08:44:29.327Z,15.22
2022-10-18T08:46:33.406Z,15.16
2022-10-18T08:48:48.687Z,15.22
2022-10-18T08:50:52.218Z,15.24
2022-10-18T08:52:59.014Z,15.23
2022-10-18T08:55:25.078Z,15.41
2022-10-18T08:57:27.245Z,15.36
2022-10-18T08:59:39.584Z,15.28
2022-10-18T09:01:54.326Z,15.24
2022-10-18T09:05:00.981Z,15.21
2022-10-18T09:07:37.367Z,15.23
2022-10-18T09:10:04.135Z,15.33
2022-10-18T09:12:35.110Z,15.39
2022-10-18T09:14:49.424Z,15.43
2022-10-18T09:17:13.664Z,15.30
2022-10-18T09:19:26.657Z,15.31
2022-10-18T09:21:43.780Z,15.22
2022-10-18T09:24:16.131Z,15.45
2022-10-18T09:26:23.460Z,15.43
2022-10-18T09:28:46.996Z,15.48
2022-10-18T09:31:10.273Z,15.37
2022-10-18T09:33:23.868Z,15.44
2022-10-18T09:35:34.064Z,15.74
2022-10-18T09:37:36.225Z,15.65
2022-10-18T09:39:39.276Z,15.60
2022-10-18T09:41:52.695Z,15.79
2022-10-18T09:44:03.607Z,15.71
2022-10-18T09:46:07.135Z,15.64
2022-10-18T09:48:27.228Z,15.77
2022-10-18T09:50:46.613Z,15.82
2022-10-18T09:52:57.366Z,15.82
2022-10-18T09:55:03.444Z,15.52
2022-10-18T09:57:11.824Z,15.39
2022-10-18T09:59:42.809Z,15.58
2022-10-18T10:01:44.601Z,15.80
2022-10-18T10:03:46.357Z,16.06
2022-10-18T10:06:02.456Z,15.93
2022-10-18T10:08:04.370Z,16.16
2022-10-18T10:10:26.789Z,16.21
2022-10-18T10:12:30.514Z,16.50
2022-10-18T10:14:43.690Z,16.52
2022-10-18T10:17:04.825Z,16.43
2022-10-18T10:19:06.618Z,16.44
2022-10-18T10:21:15.187Z,16.35
2022-10-18T10:23:21.989Z,16.16
2022-10-18T10:25:32.623Z,15.99
2022-10-18T10:27:45.507Z,15.91
2022-10-18T10:29:47.453Z,16.10
2022-10-18T10:32:02.502Z,16.10
2022-10-18T10:34:20.515Z,16.08
2022-10-18T10:36:22.402Z,16.14
2022-10-18T10:38:26.954Z,15.96
2022-10-18T10:40:30.999Z,16.13
2022-10-18T10:42:34.139Z,15.96
2022-10-18T10:44:36.993Z,15.91
2022-10-18T10:46:38.929Z,15.53
2022-10-18T10:49:04.232Z,15.87
2022-10-18T10:51:18.317Z,15.79
2022-10-18T10:53:29.136Z,15.73
2022-10-18T10:55:35.920Z,16.15
2022-10-18T10:57:38.572Z,16.41
2022-10-18T10:59:48.231Z,16.43
2022-10-18T11:02:10.138Z,16.55
2022-10-18T11:04:29.877Z,16.43
2022-10-18T11:06:34.599Z,16.24
2022-10-18T11:08:41.535Z,16.10
2022-10-18T11:10:56.461Z,16.11
2022-10-18T11:13:24.931Z,16.20
2022-10-18T11:15:33.109Z,16.50
2022-10-18T11:17:57.837Z,16.40
2022-10-18T11:20:21.855Z,16.42
2022-10-18T11:22:28.553Z,16.52
2022-10-18T11:24:31.574Z,16.55
2022-10-18T11:27:16.899Z,16.69
2022-10-18T11:29:44.345Z,16.84
2022-10-18T11:32:13.492Z,16.87
2022-10-18T11:34:49.649Z,16.93
2022-10-18T11:37:26.461Z,16.98
2022-10-18T11:39:51.233Z,16.99
2022-10-18T11:42:21.557Z,17.04
2022-10-18T11:44:43.188Z,16.88
2022-10-18T11:46:51.069Z,16.68
2022-10-18T11:49:30.893Z,16.64
2022-10-18T11:52:07.713Z,16.64
2022-10-18T11:54:43.667Z,16.83
2022-10-18T11:57:00.651Z,16.82
2022-10-18T11:59:23.601Z,16.81
2022-10-18T12:02:21.854Z,16.91
2022-10-18T12:04:34.869Z,16.88
2022-10-18T12:06:43.362Z,16.89
2022-10-18T12:08:57.445Z,16.96
2022-10-18T12:11:05.887Z,16.99
2022-10-18T12:13:16.646Z,16.71
2022-10-18T12:15:24.930Z,16.51
2022-10-18T12:17:43.909Z,16.38
2022-10-18T12:19:50.582Z,16.07
2022-10-18T12:21:54.020Z,15.99
2022-10-18T12:24:08.497Z,15.76
2022-10-18T12:26:11.309Z,15.61
2022-10-18T12:28:28.333Z,15.47
2022-10-18T12:31:03.272Z,15.15
2022-10-18T12:33:33.477Z,15.13
2022-10-18T12:35:49.329Z,15.16
2022-10-18T12:38:02.989Z,15.12
2022-10-18T12:40:14.282Z,15.09
2022-10-18T12:42:23.980Z,14.90
2022-10-18T12:44:35.344Z,14.72
2022-10-18T12:46:53.426Z,14.78
2022-10-18T12:49:05.771Z,14.82
2022-10-18T12:51:14.869Z,14.71
2022-10-18T12:53:20.332Z,14.71
2022-10-18T12:55:22.514Z,14.54
2022-10-18T12:57:24.406Z,14.67
2022-10-18T12:59:26.053Z,14.58
2022-10-18T13:01:50.595Z,14.54
2022-10-18T13:03:55.626Z,14.63
2022-10-18T13:06:01.800Z,14.80
2022-10-18T13:08:29.346Z,14.97
2022-10-18T13:10:35.880Z,14.90
2022-10-18T13:12:49.232Z,14.71
2022-10-18T13:15:12.668Z,14.41
2022-10-18T13:17:46.917Z,14.36
2022-10-18T13:20:24.021Z,14.20
2022-10-18T13:22:38.807Z,14.24
2022-10-18T13:24:57.656Z,14.00
2022-10-18T13:27:34.861Z,14.06
2022-10-18T13:29:46.120Z,14.26
2022-10-18T13:33:50.952Z,14.20
2022-10-18T13:35:58.586Z,14.11
2022-10-18T13:40:25.089Z,14.20
2022-10-18T13:42:33.791Z,14.24
2022-10-18T13:44:37.067Z,14.33
2022-10-18T13:46:39.045Z,14.47
2022-10-18T13:48:40.695Z,14.50
2022-10-18T13:50:44.767Z,14.57
2022-10-18T13:53:14.240Z,14.58
2022-10-18T13:55:43.748Z,14.56
2022-10-18T13:58:07.106Z,14.59
2022-10-18T14:00:27.402Z,14.62
2022-10-18T14:05:26.823Z,14.56
2022-10-18T14:07:29.770Z,14.78
2022-10-18T14:11:46.432Z,14.82
2022-10-18T14:13:55.234Z,14.65
2022-10-18T14:16:06.465Z,14.67
2022-10-18T14:18:21.139Z,14.43
2022-10-18T14:20:25.916Z,14.29
2022-10-18T14:22:38.231Z,14.25
2022-10-18T14:24:45.832Z,14.17
2022-10-18T14:26:47.901Z,14.12
2022-10-18T14:29:04.526Z,14.14
2022-10-18T14:31:13.261Z,13.95
2022-10-18T14:33:35.636Z,13.93
2022-10-18T14:35:37.382Z,13.77
2022-10-18T14:37:40.426Z,13.92
2022-10-18T14:39:42.394Z,13.83
2022-10-18T14:41:59.093Z,14.05
2022-10-18T14:44:16.195Z,13.91
2022-10-18T14:46:23.783Z,14.01
2022-10-18T14:48:25.507Z,14.02
2022-10-18T14:50:30.594Z,13.92
2022-10-18T14:52:35.653Z,13.90
2022-10-18T14:54:38.231Z,13.85
2022-10-18T14:56:42.738Z,13.82
2022-10-18T14:58:44.824Z,13.81
2022-10-18T15:00:48.575Z,13.83
2022-10-18T15:02:50.860Z,13.81
2022-10-18T15:05:08.385Z,13.72
2022-10-18T15:07:16.205Z,13.92
2022-10-18T15:09:23.337Z,13.91
2022-10-18T15:11:27.508Z,13.89
2022-10-18T15:13:31.663Z,13.90
2022-10-18T15:15:34.831Z,13.78
2022-10-18T15:17:36.898Z,13.70
2022-10-18T15:19:38.868Z,13.77
2022-10-18T15:22:30.278Z,13.42
2022-10-18T15:24:37.325Z,13.76
2022-10-18T15:26:45.433Z,13.78
2022-10-18T15:28:50.662Z,13.57
2022-10-18T15:30:52.608Z,13.61
2022-10-18T15:33:00.205Z,13.45
2022-10-18T15:35:29.778Z,13.37
2022-10-18T15:37:40.569Z,13.40
2022-10-18T15:39:42.520Z,13.47
2022-10-18T15:41:57.224Z,13.48
2022-10-18T15:44:20.142Z,13.53
2022-10-18T15:46:32.453Z,13.49
2022-10-18T15:48:37.949Z,13.46
2022-10-18T15:50:41.658Z,13.54
2022-10-18T15:52:43.487Z,13.45
2022-10-18T15:54:45.237Z,13.39
2022-10-18T15:56:47.050Z,13.44
2022-10-18T15:58:49.077Z,13.35
2022-10-18T16:00:56.172Z,13.33
2022-10-18T16:02:58.365Z,13.44
2022-10-18T16:05:01.745Z,13.44
2022-10-18T16:07:03.444Z,13.49
2022-10-18T16:09:05.660Z,13.37
2022-10-18T16:11:22.085Z,13.39
2022-10-18T16:13:23.758Z,13.44
2022-10-18T16:15:25.800Z,13.51
2022-10-18T16:17:27.555Z,13.41
2022-10-18T16:19:30.260Z,13.30
2022-10-18T16:21:37.207Z,13.49
2022-10-18T16:23:38.953Z,13.39
2022-10-18T16:25:40.663Z,13.38
2022-10-18T16:27:42.660Z,13.32
2022-10-18T16:29:44.417Z,13.30
2022-10-18T16:31:46.264Z,13.41
2022-10-18T16:33:49.518Z,13.27
2022-10-18T16:35:52.002Z,13.34
2022-10-18T16:37:53.723Z,13.43
2022-10-18T16:39:55.637Z,13.45
2022-10-18T16:41:57.425Z,13.58
2022-10-18T16:43:59.335Z,13.57
2022-10-18T16:46:05.874Z,13.64
2022-10-18T16:48:09.372Z,13.75
2022-10-18T16:50:19.195Z,13.75
2022-10-18T16:52:20.877Z,13.80
2022-10-18T16:54:23.379Z,13.80
2022-10-18T16:56:30.791Z,13.77
2022-10-18T16:58:33.304Z,13.65
2022-10-18T17:00:35.138Z,13.57
2022-10-18T17:02:36.885Z,13.48
2022-10-18T17:04:38.602Z,13.36
2022-10-18T17:06:40.711Z,13.40
2022-10-18T17:08:43.036Z,13.45
2022-10-18T17:10:45.118Z,13.48
2022-10-18T17:12:47.060Z,13.49
2022-10-18T17:14:48.769Z,13.56
2022-10-18T17:16:54.684Z,13.34
2022-10-18T17:19:05.070Z,13.10
2022-10-18T17:21:06.772Z,12.94
2022-10-18T17:23:09.151Z,12.96
2022-10-18T17:25:11.107Z,13.09
2022-10-18T17:27:12.841Z,13.12
2022-10-18T17:29:14.697Z,13.17
2022-10-18T17:31:16.630Z,13.19
2022-10-18T17:33:18.323Z,13.22
2022-10-18T17:35:20.091Z,13.24
2022-10-18T17:37:21.992Z,13.21
2022-10-18T17:39:23.914Z,13.19
2022-10-18T17:41:26.074Z,13.08
2022-10-18T17:43:28.186Z,13.24
2022-10-18T17:45:29.988Z,13.21
2022-10-18T17:47:31.944Z,13.16
2022-10-18T17:49:34.036Z,13.17
2022-10-18T17:51:35.745Z,13.30
2022-10-18T17:53:37.611Z,13.28
2022-10-18T17:55:40.485Z,13.16
2022-10-18T17:57:43.624Z,13.19
2022-10-18T17:59:47.921Z,13.22
2022-10-18T18:01:49.814Z,13.26
2022-10-18T18:04:02.511Z,13.36
2022-10-18T18:06:14.567Z,13.26
2022-10-18T18:08:16.612Z,13.21
2022-10-18T18:10:18.298Z,13.26
2022-10-18T18:12:20.062Z,13.22
2022-10-18T18:14:23.263Z,13.23
2022-10-18T18:16:27.725Z,13.22
2022-10-18T18:18:29.491Z,13.28
2022-10-18T18:20:31.357Z,13.20
2022-10-18T18:22:33.692Z,13.24
2022-10-18T18:24:36.497Z,13.24
2022-10-18T18:26:39.208Z,13.18
2022-10-18T18:28:41.069Z,13.13
2022-10-18T18:30:42.963Z,13.16
2022-10-18T18:32:44.799Z,13.22
2022-10-18T18:34:46.539Z,13.25
2022-10-18T18:36:49.320Z,13.28
2022-10-18T18:38:55.524Z,13.28
2022-10-18T18:41:21.491Z,13.20
2022-10-18T18:43:23.617Z,13.18
2022-10-18T18:45:25.643Z,13.22
2022-10-18T18:47:27.452Z,13.09
2022-10-18T18:49:29.402Z,13.14
2022-10-18T18:51:31.279Z,13.15
2022-10-18T18:53:33.029Z,13.16
2022-10-18T18:55:34.752Z,13.19
2022-10-18T18:57:36.768Z,13.20
2022-10-18T18:59:38.490Z,13.24
2022-10-18T19:01:41.270Z,13.30
2022-10-18T19:03:44.714Z,13.16
2022-10-18T19:05:46.499Z,13.18
2022-10-18T19:07:49.084Z,13.24
2022-10-18T19:09:51.115Z,13.17
2022-10-18T19:11:55.356Z,13.26
2022-10-18T19:14:02.109Z,13.29
2022-10-18T19:16:36.283Z,13.18
2022-10-18T19:18:38.142Z,13.20
2022-10-18T19:20:39.865Z,13.08
2022-10-18T19:22:42.492Z,13.00
2022-10-18T19:24:44.235Z,13.07
2022-10-18T19:27:08.745Z,13.07
2022-10-18T19:29:17.363Z,13.03
2022-10-18T19:31:19.209Z,12.98
2022-10-18T19:33:41.499Z,13.04
2022-10-18T19:35:57.331Z,13.06
2022-10-18T19:37:59.137Z,13.08
2022-10-18T19:40:00.838Z,13.05
2022-10-18T19:42:16.006Z,13.03
2022-10-18T19:44:21.198Z,13.07
2022-10-18T19:46:24.148Z,13.08
2022-10-18T19:48:25.919Z,13.06
2022-10-18T19:50:27.713Z,13.09
2022-10-18T19:52:29.434Z,13.12
2022-10-18T19:54:31.528Z,13.15
2022-10-18T19:56:33.662Z,13.18
2022-10-18T19:58:36.202Z,13.19
2022-10-18T20:00:38.040Z,13.21
2022-10-18T20:02:39.813Z,13.24
2022-10-18T20:04:41.509Z,13.24
2022-10-18T20:06:43.396Z,13.24
2022-10-18T20:08:45.293Z,13.17
2022-10-18T20:10:47.131Z,13.19
2022-10-18T20:12:49.063Z,13.25
2022-10-18T20:14:51.051Z,13.25
2022-10-18T20:16:55.156Z,13.24
2022-10-18T20:18:58.875Z,13.19
2022-10-18T20:21:00.529Z,13.23
2022-10-18T20:23:02.309Z,13.17
2022-10-18T20:25:04.377Z,13.22
2022-10-18T20:27:06.131Z,13.07
2022-10-18T20:29:07.971Z,13.10
2022-10-18T20:31:19.798Z,13.21
2022-10-18T20:33:21.651Z,13.15
2022-10-18T20:35:23.401Z,13.19
2022-10-18T20:37:25.148Z,13.18
2022-10-18T20:39:26.962Z,13.09
2022-10-18T20:41:31.405Z,13.04
2022-10-18T20:43:33.721Z,13.09
2022-10-18T20:45:35.404Z,13.00
2022-10-18T20:47:37.138Z,12.96
2022-10-18T20:49:38.929Z,12.92
2022-10-18T20:51:41.334Z,12.85
2022-10-18T20:53:43.696Z,12.91
2022-10-18T20:55:45.511Z,12.92
2022-10-18T20:57:47.452Z,12.85
2022-10-18T20:59:49.293Z,12.92
2022-10-18T21:01:51.172Z,12.91
2022-10-18T21:03:54.853Z,12.76
2022-10-18T21:05:56.424Z,12.75
2022-10-18T21:07:58.903Z,12.81
2022-10-18T21:10:00.660Z,12.79
2022-10-18T21:12:02.422Z,12.79
2022-10-18T21:14:06.604Z,12.78
2022-10-18T21:16:08.371Z,12.72
2022-10-18T21:18:10.051Z,12.71
2022-10-18T21:20:12.061Z,12.65
2022-10-18T21:22:13.769Z,12.55
2022-10-18T21:24:15.475Z,12.48
2022-10-18T21:26:23.861Z,12.45
2022-10-18T21:28:25.694Z,12.48
2022-10-18T21:30:27.419Z,12.37
2022-10-18T21:32:29.437Z,12.41
2022-10-18T21:34:31.325Z,12.41
2022-10-18T21:36:36.934Z,12.42
2022-10-18T21:38:39.396Z,12.49
2022-10-18T21:40:41.291Z,12.55
2022-10-18T21:42:43.009Z,12.50
2022-10-18T21:44:45.039Z,12.48
2022-10-18T21:46:46.925Z,12.39
2022-10-18T21:48:51.710Z,12.15
2022-10-18T21:50:54.419Z,12.22
2022-10-18T21:52:56.191Z,12.19
2022-10-18T21:54:57.857Z,12.15
2022-10-18T21:56:59.576Z,12.12
2022-10-18T21:59:02.377Z,12.12
2022-10-18T22:01:21.722Z,12.00
2022-10-18T22:03:23.490Z,12.04
2022-10-18T22:05:25.278Z,11.98
2022-10-18T22:07:26.967Z,12.05
2022-10-18T22:09:28.738Z,11.98
2022-10-18T22:11:33.562Z,11.94
2022-10-18T22:13:35.567Z,11.94
2022-10-18T22:17:44.107Z,11.86
2022-10-18T22:19:45.877Z,11.76
2022-10-18T22:21:47.719Z,11.69
2022-10-18T22:23:51.820Z,11.70
2022-10-18T22:25:53.564Z,11.60
2022-10-18T22:27:55.283Z,11.56
2022-10-18T22:29:57.030Z,11.52
2022-10-18T22:31:58.744Z,11.50
2022-10-18T22:34:03.454Z,11.45
2022-10-18T22:36:05.389Z,11.50
2022-10-18T22:38:07.073Z,11.39
2022-10-18T22:40:09.730Z,11.35
2022-10-18T22:42:11.406Z,11.40
2022-10-18T22:44:14.887Z,11.34
2022-10-18T22:46:17.543Z,11.29
2022-10-18T22:48:19.523Z,11.31
2022-10-18T22:50:21.204Z,11.19
2022-10-18T22:52:23.138Z,10.91
2022-10-18T22:54:24.989Z,11.08
2022-10-18T22:56:26.671Z,11.11
2022-10-18T22:58:28.923Z,11.06
2022-10-18T23:00:30.716Z,11.04
2022-10-18T23:02:32.626Z,11.05
2022-10-18T23:04:34.851Z,10.98
2022-10-18T23:06:36.827Z,10.97
2022-10-18T23:08:38.555Z,10.92
2022-10-18T23:10:42.195Z,10.91
2022-10-18T23:12:44.082Z,10.82
2022-10-18T23:14:45.799Z,10.72
2022-10-18T23:16:47.588Z,10.73
2022-10-18T23:18:56.084Z,10.81
2022-10-18T23:21:15.910Z,10.78
2022-10-18T23:23:17.837Z,10.74
2022-10-18T23:25:20.057Z,10.78
2022-10-18T23:27:21.739Z,10.72
2022-10-18T23:31:43.902Z,10.67
2022-10-18T23:33:47.467Z,10.73
2022-10-18T23:35:49.271Z,10.65
2022-10-18T23:37:51.970Z,10.60
2022-10-18T23:39:53.723Z,10.60
2022-10-18T23:41:55.399Z,10.54
2022-10-18T23:43:57.351Z,10.47
2022-10-18T23:45:59.079Z,10.48
2022-10-18T23:48:00.793Z,10.52
2022-10-18T23:50:02.747Z,10.42
2022-10-18T23:52:04.647Z,10.46
2022-10-18T23:54:06.337Z,10.52
2022-10-18T23:56:13.539Z,10.59
2022-10-18T23:58:15.275Z,10.66
